KIAG/IAG METAR and TAF weather

Enter ICAO airport designator
Station Type Date Time Source
KIAG METAR 2019/05/25 15:53 UTC NOAA

KIAG 251553Z 12008KT 10SM FEW047 18/15 A2996 RMK AO2 SLP148 T01830150


Station Type Date Time Source
KIAG Decoded METAR 2019/05/25 15:53 UTC NOAA

NIAGARA FALLS INTERNATIONAL AIRPORT, NY, United States (KIAG) 43-07N 078-56W 182M
May 25, 2019 - 11:53 AM EDT / 2019.05.25 1553 UTC
Wind: from the ESE (120 degrees) at 9 MPH (8 KT):0
Visibility: 10 mile(s):0
Sky conditions: mostly clear
Temperature: 64.9 F (18.3 C)
Dew Point: 59.0 F (15.0 C)
Relative Humidity: 81%
Pressure (altimeter): 29.96 in. Hg (1014 hPa)
ob: KIAG 251553Z 12008KT 10SM FEW047 18/15 A2996 RMK AO2 SLP148 T01830150
cycle: 16

Station Type Date Time Source
KIAG TAF 2019/05/25 15:28 UTC NOAA

TAF
AMD KIAG 251525Z 2515/2612 10004KT P6SM BKN040 BKN060
FM252100 23014G22KT 6SM -TSRA OVC050CB
FM252300 23012KT P6SM BKN040
FM260900 24010KT P6SM BKN025

Example: see airport list